Stations météo

réclame
Mon MeteoGroup
Diepenbeek, Belgique (6477): Température de l'air & dewpoint: 13.06.2018 20:00:00 - 19.06.2018 20:00:00 (CEST)Diepenbeek, Belgique (6477): Vitesse du vent & gusts: 13.06.2018 20:00:00 - 19.06.2018 20:00:00 (CEST)Diepenbeek, Belgique (6477): Direction du vent: 13.06.2018 20:00:00 - 19.06.2018 20:00:00 (CEST)Diepenbeek, Belgique (6477): reduced air pressure: 13.06.2018 20:00:00 - 19.06.2018 20:00:00 (CEST)Diepenbeek, Belgique (6477): Ensoleillement: 13.06.2018 20:00:00 - 19.06.2018 20:00:00 (CEST)Diepenbeek, Belgique (6477): Quantités de précipitations: 13.06.2018 20:00:00 - 19.06.2018 20:00:00 (CEST)
Date & Time tt [°C] td [°C] ff [km/h] ff [knt] fx [km/h] fx [knt] dd ppp [hPa] sd [min] rr [mm]
19.06.2018 20:00:00 20,4 15,6 8 4 16 9 W 1024,4 0 0,0
19.06.2018 19:00:00 20,8 15,8 11 6 16 9 WSW 1024,6 0 0,0
19.06.2018 18:00:00 21,0 15,7 11 6 21 12 W 1024,7 0 0,0
19.06.2018 17:00:00 21,2 16,1 9 5 16 9 WNW 1024,9 1 0,0
19.06.2018 16:00:00 20,7 16,2 11 6 19 11 WSW 1025,1 1 0,0
19.06.2018 15:00:00 19,4 16,1 14 8 20 11 SW 1025,3 0 0,0
19.06.2018 14:00:00 19,4 15,9 11 6 19 10 WNW 1025,1 0 0,0
19.06.2018 13:00:00 19,4 16,0 12 7 24 13 W 1025,1 1 0,0
19.06.2018 12:00:00 18,9 15,7 13 7 21 12 W 1024,8 0 0,0
19.06.2018 11:00:00 18,2 15,3 13 7 24 13 W 1024,7 0 0,0
19.06.2018 10:00:00 17,8 15,3 13 7 22 12 WSW 1024,4 0 0,0
19.06.2018 09:00:00 17,1 15,0 13 7 22 12 SW 1024,1 0 0,0
19.06.2018 08:00:00 16,6 14,7 11 6 16 9 SW 1023,8 0 0,0
19.06.2018 07:00:00 15,4 14,0 8 5 15 8 SSW 1023,5 0 0,0
19.06.2018 06:00:00 14,6 13,3 11 6 18 10 SW 1023,5 0 0,0
19.06.2018 05:00:00 13,5 12,2 9 5 17 9 SW 1023,1 0 0,0
19.06.2018 04:00:00 13,3 11,7 8 5 13 7 SW 1022,8 0 0,0
19.06.2018 03:00:00 13,6 11,3 6 4 13 7 SW 1022,6 0 0,0
19.06.2018 02:00:00 14,4 11,9 11 6 16 9 SW 1022,5 0 0,0
19.06.2018 01:00:00 13,8 12,3 6 3 9 5 SW 1022,5 0 0,0
19.06.2018 00:00:00 15,1 12,5 4 2 13 7 WSW 1022,4 0 0,0
18.06.2018 23:00:00 17,2 13,0 7 4 16 9 W 1022,2 0 0,0
18.06.2018 22:00:00 18,3 13,0 8 4 24 13 W 1021,5 32 0,0
18.06.2018 21:00:00 19,8 13,2 15 8 30 16 W 1021,3 36 0,0
18.06.2018 20:00:00 20,2 13,4 14 8 29 16 W 1021,3 38 0,0
18.06.2018 19:00:00 21,2 14,1 18 10 32 17 W 1021,0 24 0,0
18.06.2018 18:00:00 21,8 14,6 18 10 33 18 W 1021,0 46 0,0
18.06.2018 17:00:00 21,0 15,1 18 10 31 17 WSW 1021,3 12 0,0
18.06.2018 16:00:00 20,5 15,8 16 9 27 15 WSW 1021,3 0 0,0
18.06.2018 15:00:00 20,2 15,4 18 10 32 17 SW 1021,1 3 0,0
18.06.2018 14:00:00 19,9 15,7 14 8 31 17 W 1021,4 7 0,0
18.06.2018 13:00:00 19,4 14,9 17 9 35 19 WSW 1021,2 0 0,0
18.06.2018 12:00:00 19,5 14,5 19 10 29 15 SW 1021,0 0 0,0
18.06.2018 11:00:00 18,9 13,9 17 9 28 15 SW 1021,0 14 0,0
18.06.2018 10:00:00 19,0 13,7 17 9 26 14 WSW 1020,7 30 0,0
18.06.2018 09:00:00 17,8 12,7 16 9 27 15 WSW 1020,7 0 0,0
18.06.2018 08:00:00 16,9 12,3 11 6 20 11 SW 1020,2 0 0,0
18.06.2018 07:00:00 16,0 12,1 10 5 15 8 SSW 1020,3 0 0,0
18.06.2018 06:00:00 15,6 12,0 6 3 9 5 SSW 1020,3 0 0,0
18.06.2018 05:00:00 15,5 12,1 7 4 10 6 SW 1020,0 0 0,0
18.06.2018 04:00:00 15,5 12,0 6 4 13 7 SSW 1020,1 0 0,0
18.06.2018 03:00:00 15,4 11,8 7 4 10 5 S 1020,2 0 0,0
18.06.2018 02:00:00 15,4 10,9 7 4 9 5 S 1020,5 0 0,0
18.06.2018 01:00:00 15,3 10,7 5 3 9 5 SSW 1020,6 0 0,0
18.06.2018 00:00:00 15,1 10,0 5 3 13 7 SSW 1020,8 0 0,0
17.06.2018 23:00:00 16,4 9,2 8 4 16 8 WSW 1020,5 0 0,0
17.06.2018 22:00:00 17,3 9,0 11 6 23 12 W 1020,2 0 0,0
17.06.2018 21:00:00 17,8 10,9 8 4 15 8 WSW 1019,7 0 0,0
17.06.2018 20:00:00 17,7 10,7 7 4 19 10 SSW 1019,5 0 0,0
17.06.2018 19:00:00 18,0 10,3 13 7 25 13 WSW 1019,6 7 0,0
17.06.2018 18:00:00 18,5 10,5 14 8 29 15 WSW 1019,6 26 0,0
17.06.2018 17:00:00 17,2 10,1 16 8 30 16 W 1019,8 2 0,0
17.06.2018 16:00:00 16,8 10,2 14 8 29 16 WSW 1019,8 0 0,0
17.06.2018 15:00:00 17,3 9,6 18 10 29 15 WSW 1019,4 0 0,0
17.06.2018 14:00:00 17,2 9,3 14 8 29 15 WSW 1019,1 0 0,0
17.06.2018 13:00:00 16,4 9,2 19 10 34 19 WSW 1019,0 5 0,0
17.06.2018 12:00:00 16,9 10,2 20 11 32 18 WSW 1018,7 5 0,0
17.06.2018 11:00:00 16,6 10,3 18 10 32 18 WSW 1018,5 21 0,0
17.06.2018 10:00:00 16,1 10,2 18 10 29 16 W 1018,3 16 0,0
17.06.2018 09:00:00 15,8 10,6 18 10 31 17 WSW 1018,0 48 0,0
17.06.2018 08:00:00 15,1 10,7 14 8 27 15 WSW 1017,5 46 0,0
17.06.2018 07:00:00 14,4 11,1 12 6 18 10 SW 1017,3 1 0,0
17.06.2018 06:00:00 13,9 11,1 8 5 12 7 SW 1017,2 0 0,0
17.06.2018 05:00:00 13,6 10,5 8 5 16 8 SW 1017,1 0 0,0
17.06.2018 04:00:00 14,0 10,7 8 4 12 6 SW 1017,0 0 0,0
17.06.2018 03:00:00 13,5 10,6 6 4 9 5 SW 1017,0 0 0,0
17.06.2018 02:00:00 13,1 10,1 7 4 11 6 SSW 1016,9 0 0,0
17.06.2018 01:00:00 13,2 10,0 5 3 11 6 SW 1016,9 0 0,0
17.06.2018 00:00:00 14,4 10,4 7 4 11 6 SW 1016,9 0 0,0
16.06.2018 23:00:00 16,4 10,5 6 3 9 5 SW 1016,6 0 0,0
16.06.2018 22:00:00 18,0 10,9 6 4 21 12 W 1016,2 9 0,0
16.06.2018 21:00:00 19,7 11,3 10 6 24 13 W 1015,7 9 0,0
16.06.2018 20:00:00 20,5 11,8 14 8 29 15 W 1015,5 45 0,0
16.06.2018 19:00:00 21,3 12,0 22 12 34 19 W 1015,2 60 0,0
16.06.2018 18:00:00 21,6 12,3 14 7 22 12 W 1014,9 15 0,0
16.06.2018 17:00:00 20,6 12,5 18 10 32 18 WSW 1015,2 1 0,0
16.06.2018 16:00:00 22,2 13,5 16 9 29 15 SW 1014,6 36 0,0
16.06.2018 15:00:00 22,9 13,7 16 8 26 14 WSW 1014,8 59 0,0
16.06.2018 14:00:00 22,0 12,9 7 4 19 10 SW 1015,3 45 0,0
16.06.2018 13:00:00 20,6 13,0 5 3 16 8 WNW 1016,2 21 0,0
16.06.2018 12:00:00 19,8 12,9 9 5 16 9 W 1016,4 29 0,0
16.06.2018 11:00:00 19,0 12,7 7 4 13 7 S 1016,1 60 0,0
16.06.2018 10:00:00 17,2 12,3 7 4 14 7 WSW 1016,3 56 0,0
16.06.2018 09:00:00 15,5 12,7 5 3 9 5 SSW 1016,3 4 0,0
16.06.2018 08:00:00 14,4 12,7 7 4 9 5 SSW 1016,6 0 0,0
16.06.2018 07:00:00 12,6 12,3 4 2 6 3 WSW 1016,5 0 0,0
16.06.2018 06:00:00 11,4 11,0 5 3 7 4 SSE 1016,2 0 0,0
16.06.2018 05:00:00 12,1 11,6 4 2 6 4 SSW 1016,3 0 0,0
16.06.2018 04:00:00 12,6 11,9 7 4 11 6 SW 1016,6 0 0,0
16.06.2018 03:00:00 12,4 12,0 4 2 8 4 SW 1016,5 0 0,0
16.06.2018 02:00:00 12,4 11,9 4 2 5 3 SSW 1016,3 0 0,0
16.06.2018 01:00:00 13,0 12,3 4 2 6 3 S 1016,2 0 0,0
16.06.2018 00:00:00 13,6 12,7 4 2 7 4 SSE 1016,1 0 0,0
15.06.2018 23:00:00 15,4 12,8 0 0 4 2 N 1016,1 0 0,0
15.06.2018 22:00:00 18,3 14,3 0 0 4 2 N 1016,0 17 0,0
15.06.2018 21:00:00 21,7 12,8 4 2 7 4 SSW 1016,1 47 0,0
15.06.2018 20:00:00 21,8 12,1 7 4 13 7 SSW 1016,1 30 0,0
15.06.2018 19:00:00 22,7 11,1 6 3 16 9 WSW 1016,2 49 0,0
15.06.2018 18:00:00 23,4 11,2 8 4 16 8 WSW 1016,1 60 0,0
15.06.2018 17:00:00 23,4 11,1 9 5 19 10 WNW 1016,4 57 0,0
15.06.2018 16:00:00 23,1 11,0 13 7 22 12 WSW 1016,8 60 0,0
15.06.2018 15:00:00 22,6 11,4 10 5 19 11 W 1017,0 60 0,0
15.06.2018 14:00:00 21,4 11,8 11 6 28 15 W 1017,2 43 0,0
15.06.2018 13:00:00 20,1 12,6 10 5 19 11 SSW 1017,5 47 0,0
15.06.2018 12:00:00 18,8 12,7 9 5 14 8 SW 1017,5 44 0,0
15.06.2018 11:00:00 17,7 12,7 6 4 16 9 SW 1017,6 34 0,0
15.06.2018 10:00:00 17,3 12,1 11 6 14 8 SSW 1017,6 - -
15.06.2018 09:00:00 - - - - - - - - - -
15.06.2018 08:00:00 15,1 13,4 7 4 8 5 S 1017,1 39 0,0
15.06.2018 07:00:00 12,3 12,1 0 0 6 3 N 1017,2 0 0,0
15.06.2018 06:00:00 11,0 10,9 4 2 6 3 SSW 1016,7 0 0,0
15.06.2018 05:00:00 13,1 12,9 0 0 5 3 N 1016,4 0 0,0
15.06.2018 04:00:00 14,1 13,8 0 0 3 2 N 1016,5 0 0,0
15.06.2018 03:00:00 14,0 13,5 4 2 8 4 SSW 1016,7 0 0,0
15.06.2018 02:00:00 14,8 14,0 4 2 8 4 S 1016,9 0 0,0
15.06.2018 01:00:00 14,9 14,1 4 2 9 5 S 1016,9 0 0,0
15.06.2018 00:00:00 15,4 14,2 5 3 10 6 SSW 1016,9 0 0,0
14.06.2018 23:00:00 15,8 14,5 9 5 23 12 SW 1016,8 0 0,0
14.06.2018 22:00:00 16,2 14,4 9 5 22 12 S 1016,3 0 0,0
14.06.2018 21:00:00 16,6 14,1 12 6 27 15 SSW 1015,9 0 0,0
14.06.2018 20:00:00 17,8 13,3 11 6 31 17 WSW 1015,4 0 0,0
14.06.2018 19:00:00 18,2 13,7 12 7 24 13 SW 1015,3 0 0,0
14.06.2018 18:00:00 17,9 14,1 13 7 21 11 SSW 1014,9 0 0,1
14.06.2018 17:00:00 17,5 13,5 13 7 24 13 SW 1015,2 0 0,2
14.06.2018 16:00:00 18,7 12,6 13 7 22 12 WSW 1015,2 0 0,1
14.06.2018 15:00:00 19,5 11,3 19 10 34 18 SW 1014,9 0 0,0
14.06.2018 14:00:00 20,7 10,9 18 10 31 17 WSW 1015,1 31 0,0
14.06.2018 13:00:00 19,5 10,0 20 11 33 18 WSW 1015,7 23 0,0
14.06.2018 12:00:00 19,5 10,1 20 11 35 19 SW 1015,7 54 0,0
14.06.2018 11:00:00 18,6 10,9 19 10 31 17 SW 1015,7 58 0,0
14.06.2018 10:00:00 17,4 12,0 18 10 26 14 SW 1016,0 60 0,0
14.06.2018 09:00:00 15,4 11,7 14 8 20 11 SSW 1016,2 60 0,0
14.06.2018 08:00:00 13,4 11,6 7 4 15 8 S 1016,4 53 0,0
14.06.2018 07:00:00 8,5 8,0 0 0 3 2 N 1016,8 30 0,0
14.06.2018 06:00:00 7,3 7,2 0 0 5 3 N 1017,0 0 0,0
14.06.2018 05:00:00 7,2 7,1 4 2 5 3 E 1017,2 0 0,0
14.06.2018 04:00:00 7,8 7,6 0 0 5 3 N 1017,7 0 0,0
14.06.2018 03:00:00 8,1 7,8 0 0 5 3 N 1017,8 0 0,0
14.06.2018 02:00:00 8,2 7,7 0 0 4 2 N 1018,0 0 0,0
14.06.2018 01:00:00 9,2 8,9 4 2 5 3 SE 1018,1 0 0,0
14.06.2018 00:00:00 10,3 9,5 4 2 4 2 ESE 1018,2 0 0,0
13.06.2018 23:00:00 11,2 9,6 4 2 - - WSW 1018,2 - -
13.06.2018 22:00:00 13,7 10,1 0 0 4 2 N 1018,0 - -
13.06.2018 21:00:00 17,2 9,3 0 0 12 6 N 1018,0 55 0,0
13.06.2018 20:00:00 18,2 8,8 7 4 16 9 N 1017,8 11 0,0

tt = Température de l'air
td = dewpoint
ff = Vitesse du vent
fx = gusts
dd = Direction du vent
ppp = reduced air pressure
sd = Ensoleillement
rr = Quantités de précipitations

stations d'obs. à proximité